sensor_id;sensor_type;location;lat;lon;timestamp;pressure;altitude;pressure_sealevel;temperature;humidity
48926;BME280;39838;59.938;30.642;2022-09-20T00:01:29;98653.34;;;9.02;94.50
48926;BME280;39838;59.938;30.642;2022-09-20T00:04:00;98638.84;;;8.94;94.95
48926;BME280;39838;59.938;30.642;2022-09-20T00:06:30;98648.13;;;9.04;94.71
48926;BME280;39838;59.938;30.642;2022-09-20T00:08:58;98651.47;;;9.08;94.86
48926;BME280;39838;59.938;30.642;2022-09-20T00:11:27;98663.63;;;9.06;94.39
48926;BME280;39838;59.938;30.642;2022-09-20T00:13:56;98670.44;;;9.10;94.70
48926;BME280;39838;59.938;30.642;2022-09-20T00:16:26;98642.19;;;8.99;94.45
48926;BME280;39838;59.938;30.642;2022-09-20T00:18:55;98678.31;;;9.05;94.32
48926;BME280;39838;59.938;30.642;2022-09-20T00:21:25;98686.03;;;9.07;93.87
48926;BME280;39838;59.938;30.642;2022-09-20T00:23:53;98703.28;;;9.08;94.18
48926;BME280;39838;59.938;30.642;2022-09-20T00:26:21;98698.16;;;9.06;93.82
48926;BME280;39838;59.938;30.642;2022-09-20T00:28:48;98714.59;;;9.05;94.69
48926;BME280;39838;59.938;30.642;2022-09-20T00:31:16;98705.16;;;9.02;94.19
48926;BME280;39838;59.938;30.642;2022-09-20T00:33:44;98724.00;;;9.08;94.61
48926;BME280;39838;59.938;30.642;2022-09-20T00:36:29;98730.97;;;9.06;94.38
48926;BME280;39838;59.938;30.642;2022-09-20T00:38:58;98716.31;;;9.05;94.26
48926;BME280;39838;59.938;30.642;2022-09-20T00:41:26;98744.91;;;9.01;94.24
48926;BME280;39838;59.938;30.642;2022-09-20T00:43:53;98720.75;;;9.01;93.97
48926;BME280;39838;59.938;30.642;2022-09-20T00:46:24;98736.28;;;8.99;94.14
48926;BME280;39838;59.938;30.642;2022-09-20T00:48:54;98692.81;;;8.75;94.08
48926;BME280;39838;59.938;30.642;2022-09-20T00:51:28;98708.00;;;8.90;94.67
48926;BME280;39838;59.938;30.642;2022-09-20T00:54:00;98720.78;;;8.98;94.11
48926;BME280;39838;59.938;30.642;2022-09-20T00:56:30;98745.03;;;8.95;93.85
48926;BME280;39838;59.938;30.642;2022-09-20T00:59:03;98733.88;;;8.92;94.23
48926;BME280;39838;59.938;30.642;2022-09-20T01:01:31;98738.09;;;8.96;94.15
48926;BME280;39838;59.938;30.642;2022-09-20T01:03:59;98752.81;;;8.94;94.43
48926;BME280;39838;59.938;30.642;2022-09-20T01:06:28;98749.31;;;8.96;93.72
48926;BME280;39838;59.938;30.642;2022-09-20T01:08:58;98732.00;;;8.98;93.94
48926;BME280;39838;59.938;30.642;2022-09-20T01:11:28;98761.41;;;8.96;93.64
48926;BME280;39838;59.938;30.642;2022-09-20T01:13:55;98743.28;;;8.96;93.28
48926;BME280;39838;59.938;30.642;2022-09-20T01:16:24;98771.75;;;8.97;93.88
48926;BME280;39838;59.938;30.642;2022-09-20T01:18:52;98760.50;;;8.98;93.73
48926;BME280;39838;59.938;30.642;2022-09-20T01:21:22;98767.38;;;8.99;93.86
48926;BME280;39838;59.938;30.642;2022-09-20T01:23:56;98761.28;;;9.00;93.71
48926;BME280;39838;59.938;30.642;2022-09-20T01:26:37;98762.19;;;9.01;93.27
48926;BME280;39838;59.938;30.642;2022-09-20T01:29:22;98791.53;;;9.01;93.56
48926;BME280;39838;59.938;30.642;2022-09-20T01:31:54;98781.97;;;9.03;93.46
48926;BME280;39838;59.938;30.642;2022-09-20T01:34:27;98789.72;;;9.05;93.17
48926;BME280;39838;59.938;30.642;2022-09-20T01:37:01;98794.13;;;9.00;92.93
48926;BME280;39838;59.938;30.642;2022-09-20T01:39:36;98801.91;;;9.00;93.10
48926;BME280;39838;59.938;30.642;2022-09-20T01:42:08;98814.00;;;8.99;93.23
48926;BME280;39838;59.938;30.642;2022-09-20T01:44:41;98807.03;;;9.03;93.13
48926;BME280;39838;59.938;30.642;2022-09-20T01:47:22;98785.78;;;8.86;92.79
48926;BME280;39838;59.938;30.642;2022-09-20T01:50:02;98797.56;;;9.02;93.03
48926;BME280;39838;59.938;30.642;2022-09-20T01:59:05;98826.78;;;9.07;92.33
48926;BME280;39838;59.938;30.642;2022-09-20T02:02:06;98825.03;;;9.09;92.23
48926;BME280;39838;59.938;30.642;2022-09-20T02:05:07;98831.94;;;9.10;91.77
48926;BME280;39838;59.938;30.642;2022-09-20T02:08:06;98832.84;;;9.06;91.96
48926;BME280;39838;59.938;30.642;2022-09-20T02:10:44;98849.25;;;9.08;91.79
48926;BME280;39838;59.938;30.642;2022-09-20T02:13:26;98843.19;;;9.09;91.67
48926;BME280;39838;59.938;30.642;2022-09-20T02:16:19;98846.56;;;9.11;91.35
48926;BME280;39838;59.938;30.642;2022-09-20T02:19:06;98849.16;;;9.11;91.47
48926;BME280;39838;59.938;30.642;2022-09-20T02:21:43;98796.06;;;8.90;91.03
48926;BME280;39838;59.938;30.642;2022-09-20T02:24:22;98840.50;;;9.12;91.27
48926;BME280;39838;59.938;30.642;2022-09-20T02:27:05;98849.31;;;9.03;90.81
48926;BME280;39838;59.938;30.642;2022-09-20T02:29:40;98862.16;;;9.10;90.53
48926;BME280;39838;59.938;30.642;2022-09-20T02:32:31;98863.88;;;9.11;90.84
48926;BME280;39838;59.938;30.642;2022-09-20T02:35:18;98870.75;;;9.12;90.48
48926;BME280;39838;59.938;30.642;2022-09-20T02:37:56;98854.72;;;8.93;90.03
48926;BME280;39838;59.938;30.642;2022-09-20T02:40:48;98886.28;;;9.12;90.25
48926;BME280;39838;59.938;30.642;2022-09-20T02:43:23;98880.34;;;9.08;90.45
48926;BME280;39838;59.938;30.642;2022-09-20T02:45:58;98892.31;;;9.12;90.16
48926;BME280;39838;59.938;30.642;2022-09-20T02:48:33;98906.16;;;9.11;90.71
48926;BME280;39838;59.938;30.642;2022-09-20T02:51:08;98897.53;;;9.11;90.36
48926;BME280;39838;59.938;30.642;2022-09-20T02:53:43;98908.75;;;9.11;90.76
48926;BME280;39838;59.938;30.642;2022-09-20T02:56:17;98885.63;;;9.02;90.50
48926;BME280;39838;59.938;30.642;2022-09-20T02:58:53;98908.06;;;9.03;90.61
48926;BME280;39838;59.938;30.642;2022-09-20T03:01:34;98915.88;;;9.01;90.40
48926;BME280;39838;59.938;30.642;2022-09-20T03:04:28;98938.28;;;9.02;90.84
48926;BME280;39838;59.938;30.642;2022-09-20T03:07:06;98932.19;;;9.05;90.67
48926;BME280;39838;59.938;30.642;2022-09-20T03:09:43;98940.00;;;9.03;90.20
48926;BME280;39838;59.938;30.642;2022-09-20T03:12:21;98943.47;;;9.02;90.41
48926;BME280;39838;59.938;30.642;2022-09-20T03:14:58;98952.94;;;9.03;90.30
48926;BME280;39838;59.938;30.642;2022-09-20T03:17:33;98952.09;;;9.03;90.23
48926;BME280;39838;59.938;30.642;2022-09-20T03:20:07;98951.19;;;9.06;89.75
48926;BME280;39838;59.938;30.642;2022-09-20T03:22:52;98963.28;;;9.05;90.16
48926;BME280;39838;59.938;30.642;2022-09-20T03:25:32;98964.13;;;9.06;89.96
48926;BME280;39838;59.938;30.642;2022-09-20T03:28:10;98970.16;;;9.06;90.08
48926;BME280;39838;59.938;30.642;2022-09-20T03:30:52;98975.41;;;9.03;90.36
48926;BME280;39838;59.938;30.642;2022-09-20T03:33:28;98977.13;;;9.04;90.37
48926;BME280;39838;59.938;30.642;2022-09-20T03:36:09;98977.03;;;9.07;90.07
48926;BME280;39838;59.938;30.642;2022-09-20T03:39:01;98982.22;;;9.07;89.86
48926;BME280;39838;59.938;30.642;2022-09-20T03:41:58;98990.03;;;9.06;89.88
48926;BME280;39838;59.938;30.642;2022-09-20T03:44:49;98996.09;;;9.05;89.36
48926;BME280;39838;59.938;30.642;2022-09-20T03:47:36;98994.38;;;9.05;89.98
48926;BME280;39838;59.938;30.642;2022-09-20T03:50:36;99003.03;;;9.04;89.37
48926;BME280;39838;59.938;30.642;2022-09-20T03:56:47;99026.28;;;9.09;89.50
48926;BME280;39838;59.938;30.642;2022-09-20T03:59:41;98998.69;;;9.05;88.92
48926;BME280;39838;59.938;30.642;2022-09-20T04:02:37;99012.69;;;8.93;89.36
48926;BME280;39838;59.938;30.642;2022-09-20T04:05:11;99029.72;;;9.08;89.23
48926;BME280;39838;59.938;30.642;2022-09-20T04:07:50;99028.84;;;9.07;89.29
48926;BME280;39838;59.938;30.642;2022-09-20T04:10:31;99046.06;;;9.11;89.28
48926;BME280;39838;59.938;30.642;2022-09-20T04:13:18;99050.38;;;9.12;89.24
48926;BME280;39838;59.938;30.642;2022-09-20T04:16:06;99046.94;;;9.12;89.13
48926;BME280;39838;59.938;30.642;2022-09-20T04:18:42;99072.75;;;9.18;88.99
48926;BME280;39838;59.938;30.642;2022-09-20T04:21:15;99061.53;;;9.17;88.56
48926;BME280;39838;59.938;30.642;2022-09-20T04:23:55;99067.53;;;9.19;88.09
48926;BME280;39838;59.938;30.642;2022-09-20T04:26:26;99080.34;;;9.28;88.72
48926;BME280;39838;59.938;30.642;2022-09-20T04:28:59;99080.38;;;9.25;88.67
48926;BME280;39838;59.938;30.642;2022-09-20T04:31:35;99094.13;;;9.30;88.21
48926;BME280;39838;59.938;30.642;2022-09-20T04:34:12;99090.63;;;9.32;88.35
48926;BME280;39838;59.938;30.642;2022-09-20T04:37:14;99096.69;;;9.32;87.74
48926;BME280;39838;59.938;30.642;2022-09-20T04:39:56;99090.56;;;9.35;88.13
48926;BME280;39838;59.938;30.642;2022-09-20T04:45:49;99103.53;;;9.35;88.44
48926;BME280;39838;59.938;30.642;2022-09-20T04:48:37;99107.75;;;9.42;87.27
48926;BME280;39838;59.938;30.642;2022-09-20T04:54:42;99112.94;;;9.42;87.54
48926;BME280;39838;59.938;30.642;2022-09-20T04:57:26;99120.66;;;9.45;87.49
48926;BME280;39838;59.938;30.642;2022-09-20T05:00:04;99124.22;;;9.38;86.93
48926;BME280;39838;59.938;30.642;2022-09-20T05:03:22;99150.00;;;9.48;87.45
48926;BME280;39838;59.938;30.642;2022-09-20T05:06:07;99113.22;;;9.25;87.58
48926;BME280;39838;59.938;30.642;2022-09-20T05:09:10;99163.75;;;9.52;87.06
48926;BME280;39838;59.938;30.642;2022-09-20T05:12:03;99168.84;;;9.55;87.37
48926;BME280;39838;59.938;30.642;2022-09-20T05:15:02;99172.34;;;9.55;87.48
48926;BME280;39838;59.938;30.642;2022-09-20T05:17:41;99150.13;;;9.39;87.73
48926;BME280;39838;59.938;30.642;2022-09-20T05:23:30;99188.50;;;9.68;87.43
48926;BME280;39838;59.938;30.642;2022-09-20T05:26:08;99167.00;;;9.63;86.48
48926;BME280;39838;59.938;30.642;2022-09-20T05:28:44;99195.25;;;9.78;86.59
48926;BME280;39838;59.938;30.642;2022-09-20T05:31:19;99201.19;;;9.85;86.74
48926;BME280;39838;59.938;30.642;2022-09-20T05:33:53;99205.47;;;9.89;86.67
48926;BME280;39838;59.938;30.642;2022-09-20T05:36:30;99209.94;;;9.79;86.33
48926;BME280;39838;59.938;30.642;2022-09-20T05:39:17;99219.41;;;9.82;86.00
48926;BME280;39838;59.938;30.642;2022-09-20T05:41:53;99221.88;;;9.88;86.53
48926;BME280;39838;59.938;30.642;2022-09-20T05:44:28;99233.88;;;9.97;86.27
48926;BME280;39838;59.938;30.642;2022-09-20T05:47:03;99241.63;;;9.98;85.90
48926;BME280;39838;59.938;30.642;2022-09-20T05:49:40;99245.00;;;10.02;86.29
48926;BME280;39838;59.938;30.642;2022-09-20T05:52:28;99264.91;;;10.01;85.92
48926;BME280;39838;59.938;30.642;2022-09-20T05:55:23;99253.63;;;10.04;85.77
48926;BME280;39838;59.938;30.642;2022-09-20T05:58:15;99254.41;;;10.07;85.79
48926;BME280;39838;59.938;30.642;2022-09-20T06:00:52;99263.91;;;10.10;85.42
48926;BME280;39838;59.938;30.642;2022-09-20T06:03:31;99265.44;;;10.20;84.90
48926;BME280;39838;59.938;30.642;2022-09-20T06:06:06;99266.25;;;10.25;85.41
48926;BME280;39838;59.938;30.642;2022-09-20T06:09:02;99251.69;;;10.15;85.29
48926;BME280;39838;59.938;30.642;2022-09-20T06:11:56;99287.66;;;10.38;84.73
48926;BME280;39838;59.938;30.642;2022-09-20T06:14:36;99290.06;;;10.47;84.71
48926;BME280;39838;59.938;30.642;2022-09-20T06:17:21;99291.75;;;10.50;84.26
48926;BME280;39838;59.938;30.642;2022-09-20T06:20:03;99303.75;;;10.57;84.03
48926;BME280;39838;59.938;30.642;2022-09-20T06:22:38;99309.69;;;10.62;83.32
48926;BME280;39838;59.938;30.642;2022-09-20T06:25:16;99320.84;;;10.67;83.45
48926;BME280;39838;59.938;30.642;2022-09-20T06:27:50;99306.81;;;10.76;83.36
48926;BME280;39838;59.938;30.642;2022-09-20T06:30:22;99284.69;;;10.58;82.83
48926;BME280;39838;59.938;30.642;2022-09-20T06:32:56;99337.06;;;10.80;83.16
48926;BME280;39838;59.938;30.642;2022-09-20T06:35:28;99294.75;;;10.73;82.93
48926;BME280;39838;59.938;30.642;2022-09-20T06:38:05;99332.41;;;10.96;82.38
48926;BME280;39838;59.938;30.642;2022-09-20T06:40:53;99341.91;;;10.97;82.28
48926;BME280;39838;59.938;30.642;2022-09-20T06:43:37;99347.13;;;10.98;82.29
48926;BME280;39838;59.938;30.642;2022-09-20T06:46:05;99353.91;;;11.05;82.15
48926;BME280;39838;59.938;30.642;2022-09-20T06:48:32;99365.03;;;11.12;81.57
48926;BME280;39838;59.938;30.642;2022-09-20T06:51:00;99358.78;;;11.20;81.37
48926;BME280;39838;59.938;30.642;2022-09-20T06:53:29;99391.53;;;11.29;81.13
48926;BME280;39838;59.938;30.642;2022-09-20T06:55:58;99367.09;;;11.36;81.01
48926;BME280;39838;59.938;30.642;2022-09-20T06:58:26;99387.56;;;11.53;81.00
48926;BME280;39838;59.938;30.642;2022-09-20T07:00:53;99390.03;;;11.58;80.26
48926;BME280;39838;59.938;30.642;2022-09-20T07:03:20;99399.56;;;11.60;79.82
48926;BME280;39838;59.938;30.642;2022-09-20T07:05:47;99397.00;;;11.59;79.47
48926;BME280;39838;59.938;30.642;2022-09-20T07:08:15;99414.19;;;11.64;78.64
48926;BME280;39838;59.938;30.642;2022-09-20T07:10:42;99410.69;;;11.67;78.86
48926;BME280;39838;59.938;30.642;2022-09-20T07:13:11;99410.47;;;11.76;79.13
48926;BME280;39838;59.938;30.642;2022-09-20T07:15:39;99426.75;;;11.87;78.86
48926;BME280;39838;59.938;30.642;2022-09-20T07:18:06;99421.28;;;11.98;77.88
48926;BME280;39838;59.938;30.642;2022-09-20T07:20:33;99424.59;;;12.05;77.92
48926;BME280;39838;59.938;30.642;2022-09-20T07:23:01;99425.41;;;12.08;77.01
48926;BME280;39838;59.938;30.642;2022-09-20T07:25:29;99435.66;;;12.14;77.07
48926;BME280;39838;59.938;30.642;2022-09-20T07:27:56;99437.19;;;12.23;77.06
48926;BME280;39838;59.938;30.642;2022-09-20T07:30:25;99450.00;;;12.32;77.01
48926;BME280;39838;59.938;30.642;2022-09-20T07:32:52;99448.94;;;12.41;77.09
48926;BME280;39838;59.938;30.642;2022-09-20T07:35:19;99462.81;;;12.41;76.67
48926;BME280;39838;59.938;30.642;2022-09-20T07:37:46;99472.28;;;12.44;76.01
48926;BME280;39838;59.938;30.642;2022-09-20T07:40:13;99460.13;;;12.44;76.28
48926;BME280;39838;59.938;30.642;2022-09-20T07:42:40;99462.72;;;12.44;75.94
48926;BME280;39838;59.938;30.642;2022-09-20T07:45:09;99472.97;;;12.52;75.96
48926;BME280;39838;59.938;30.642;2022-09-20T07:47:38;99482.28;;;12.62;75.85
48926;BME280;39838;59.938;30.642;2022-09-20T07:50:07;99493.28;;;12.73;74.79
48926;BME280;39838;59.938;30.642;2022-09-20T07:52:36;99488.09;;;12.72;74.60
48926;BME280;39838;59.938;30.642;2022-09-20T07:55:04;99500.94;;;12.81;74.79
48926;BME280;39838;59.938;30.642;2022-09-20T07:57:34;99501.59;;;12.89;74.83
48926;BME280;39838;59.938;30.642;2022-09-20T08:00:04;99503.13;;;12.96;74.23
48926;BME280;39838;59.938;30.642;2022-09-20T08:02:31;99507.22;;;13.06;73.57
48926;BME280;39838;59.938;30.642;2022-09-20T08:05:00;99504.75;;;13.02;73.27
48926;BME280;39838;59.938;30.642;2022-09-20T08:07:28;99520.25;;;13.06;72.82
48926;BME280;39838;59.938;30.642;2022-09-20T08:09:55;99537.78;;;13.01;72.34
48926;BME280;39838;59.938;30.642;2022-09-20T08:12:22;99532.56;;;13.01;72.49
48926;BME280;39838;59.938;30.642;2022-09-20T08:14:51;99528.22;;;13.02;72.65
48926;BME280;39838;59.938;30.642;2022-09-20T08:17:18;99531.66;;;13.02;72.20
48926;BME280;39838;59.938;30.642;2022-09-20T08:19:45;99536.13;;;12.97;72.72
48926;BME280;39838;59.938;30.642;2022-09-20T08:22:13;99544.75;;;13.01;72.23
48926;BME280;39838;59.938;30.642;2022-09-20T08:24:40;99552.47;;;13.04;71.77
48926;BME280;39838;59.938;30.642;2022-09-20T08:27:08;99551.31;;;13.16;71.99
48926;BME280;39838;59.938;30.642;2022-09-20T08:29:35;99580.78;;;13.19;71.95
48926;BME280;39838;59.938;30.642;2022-09-20T08:32:03;99575.56;;;13.19;70.68
48926;BME280;39838;59.938;30.642;2022-09-20T08:34:30;99585.13;;;13.19;70.86
48926;BME280;39838;59.938;30.642;2022-09-20T08:36:57;99584.25;;;13.21;71.25
48926;BME280;39838;59.938;30.642;2022-09-20T08:39:25;99573.63;;;13.27;71.06
48926;BME280;39838;59.938;30.642;2022-09-20T08:41:54;99577.94;;;13.30;70.76
48926;BME280;39838;59.938;30.642;2022-09-20T08:44:25;99552.13;;;13.18;71.09
48926;BME280;39838;59.938;30.642;2022-09-20T08:47:02;99603.56;;;13.48;70.67
48926;BME280;39838;59.938;30.642;2022-09-20T08:49:32;99608.63;;;13.53;69.24
48926;BME280;39838;59.938;30.642;2022-09-20T08:52:00;99601.47;;;13.61;69.51
48926;BME280;39838;59.938;30.642;2022-09-20T08:54:31;99615.91;;;13.74;69.58
48926;BME280;39838;59.938;30.642;2022-09-20T08:57:01;99619.25;;;13.79;68.59
48926;BME280;39838;59.938;30.642;2022-09-20T08:59:31;99618.31;;;13.82;69.14
48926;BME280;39838;59.938;30.642;2022-09-20T09:01:59;99620.69;;;13.91;68.55
48926;BME280;39838;59.938;30.642;2022-09-20T09:04:33;99630.13;;;13.95;68.63
48926;BME280;39838;59.938;30.642;2022-09-20T09:07:01;99638.09;;;13.90;69.96
48926;BME280;39838;59.938;30.642;2022-09-20T09:09:31;99598.25;;;13.84;67.95
48926;BME280;39838;59.938;30.642;2022-09-20T09:12:02;99631.59;;;14.05;67.70
48926;BME280;39838;59.938;30.642;2022-09-20T09:14:31;99633.34;;;14.05;67.42
48926;BME280;39838;59.938;30.642;2022-09-20T09:17:15;99659.97;;;14.17;66.86
48926;BME280;39838;59.938;30.642;2022-09-20T09:19:46;99640.06;;;14.13;66.39
48926;BME280;39838;59.938;30.642;2022-09-20T09:22:22;99659.25;;;14.12;66.41
48926;BME280;39838;59.938;30.642;2022-09-20T09:25:19;99644.00;;;13.97;66.22
48926;BME280;39838;59.938;30.642;2022-09-20T09:27:52;99674.75;;;14.18;66.23
48926;BME280;39838;59.938;30.642;2022-09-20T09:30:22;99666.31;;;14.09;66.21
48926;BME280;39838;59.938;30.642;2022-09-20T09:32:51;99682.72;;;14.14;66.36
48926;BME280;39838;59.938;30.642;2022-09-20T09:35:24;99689.06;;;14.05;65.96
48926;BME280;39838;59.938;30.642;2022-09-20T09:37:53;99687.19;;;14.10;66.19
48926;BME280;39838;59.938;30.642;2022-09-20T09:40:22;99698.38;;;14.14;66.61
48926;BME280;39838;59.938;30.642;2022-09-20T09:42:52;99695.97;;;14.06;65.93
48926;BME280;39838;59.938;30.642;2022-09-20T09:45:26;99704.59;;;14.10;66.96
48926;BME280;39838;59.938;30.642;2022-09-20T09:47:54;99712.56;;;14.05;66.53
48926;BME280;39838;59.938;30.642;2022-09-20T09:50:23;99697.41;;;13.85;65.78
48926;BME280;39838;59.938;30.642;2022-09-20T09:53:02;99717.34;;;13.88;65.93
48926;BME280;39838;59.938;30.642;2022-09-20T09:58:48;99738.56;;;13.76;65.62
48926;BME280;39838;59.938;30.642;2022-09-20T10:01:29;99730.94;;;13.66;65.87
48926;BME280;39838;59.938;30.642;2022-09-20T10:04:09;99743.09;;;13.69;66.65
48926;BME280;39838;59.938;30.642;2022-09-20T10:06:45;99754.47;;;13.65;66.77
48926;BME280;39838;59.938;30.642;2022-09-20T10:09:36;99752.84;;;13.61;66.74
48926;BME280;39838;59.938;30.642;2022-09-20T10:12:21;99763.41;;;13.56;66.77
48926;BME280;39838;59.938;30.642;2022-09-20T10:15:00;99721.56;;;13.24;67.22
48926;BME280;39838;59.938;30.642;2022-09-20T10:17:44;99763.59;;;13.47;66.90
48926;BME280;39838;59.938;30.642;2022-09-20T10:20:26;99779.97;;;13.54;67.31
48926;BME280;39838;59.938;30.642;2022-09-20T10:23:04;99782.56;;;13.55;66.55
48926;BME280;39838;59.938;30.642;2022-09-20T10:25:39;99788.38;;;13.66;66.90
48926;BME280;39838;59.938;30.642;2022-09-20T10:28:23;99790.03;;;13.71;66.41
48926;BME280;39838;59.938;30.642;2022-09-20T10:30:58;99792.59;;;13.72;66.87
48926;BME280;39838;59.938;30.642;2022-09-20T10:33:34;99795.97;;;13.77;66.58
48926;BME280;39838;59.938;30.642;2022-09-20T10:36:13;99774.50;;;13.64;66.78
48926;BME280;39838;59.938;30.642;2022-09-20T10:38:47;99793.91;;;13.90;67.14
48926;BME280;39838;59.938;30.642;2022-09-20T10:41:34;99806.56;;;14.05;67.32
48926;BME280;39838;59.938;30.642;2022-09-20T10:44:39;99822.00;;;14.14;66.44
48926;BME280;39838;59.938;30.642;2022-09-20T10:47:14;99814.88;;;14.21;65.85
48926;BME280;39838;59.938;30.642;2022-09-20T10:49:51;99813.88;;;14.27;66.09
48926;BME280;39838;59.938;30.642;2022-09-20T10:52:41;99815.50;;;14.31;65.90
48926;BME280;39838;59.938;30.642;2022-09-20T10:55:28;99825.81;;;14.37;64.97
48926;BME280;39838;59.938;30.642;2022-09-20T10:58:29;99832.09;;;14.30;65.63
48926;BME280;39838;59.938;30.642;2022-09-20T11:01:06;99831.09;;;14.34;66.00
48926;BME280;39838;59.938;30.642;2022-09-20T11:03:59;99833.06;;;14.26;65.76
48926;BME280;39838;59.938;30.642;2022-09-20T11:06:36;99836.53;;;14.26;67.01
48926;BME280;39838;59.938;30.642;2022-09-20T11:09:11;99853.56;;;14.41;65.91
48926;BME280;39838;59.938;30.642;2022-09-20T11:11:42;99852.38;;;14.54;66.07
48926;BME280;39838;59.938;30.642;2022-09-20T11:14:16;99852.16;;;14.62;65.36
48926;BME280;39838;59.938;30.642;2022-09-20T11:16:50;99861.44;;;14.73;65.07
48926;BME280;39838;59.938;30.642;2022-09-20T11:19:23;99868.47;;;14.71;64.66
48926;BME280;39838;59.938;30.642;2022-09-20T11:21:56;99866.72;;;14.72;64.49
48926;BME280;39838;59.938;30.642;2022-09-20T11:24:30;99882.19;;;14.80;64.20
48926;BME280;39838;59.938;30.642;2022-09-20T11:27:03;99886.94;;;14.98;64.81
48926;BME280;39838;59.938;30.642;2022-09-20T11:29:35;99888.38;;;15.08;63.37
48926;BME280;39838;59.938;30.642;2022-09-20T11:32:11;99896.50;;;14.99;63.41
48926;BME280;39838;59.938;30.642;2022-09-20T11:34:48;99892.16;;;14.98;63.39
48926;BME280;39838;59.938;30.642;2022-09-20T11:37:18;99917.09;;;15.11;62.90
48926;BME280;39838;59.938;30.642;2022-09-20T11:39:49;99896.09;;;15.13;63.17
48926;BME280;39838;59.938;30.642;2022-09-20T11:42:20;99879.41;;;15.17;63.13
48926;BME280;39838;59.938;30.642;2022-09-20T11:44:48;99921.72;;;15.33;62.34
48926;BME280;39838;59.938;30.642;2022-09-20T11:47:21;99921.06;;;15.24;61.93
48926;BME280;39838;59.938;30.642;2022-09-20T11:50:03;99920.03;;;14.99;62.42
48926;BME280;39838;59.938;30.642;2022-09-20T11:52:41;99931.59;;;14.90;62.88
48926;BME280;39838;59.938;30.642;2022-09-20T11:55:21;99927.41;;;14.83;63.67
48926;BME280;39838;59.938;30.642;2022-09-20T11:57:59;99918.16;;;14.71;63.50
48926;BME280;39838;59.938;30.642;2022-09-20T12:00:29;99941.44;;;14.81;63.74
48926;BME280;39838;59.938;30.642;2022-09-20T12:03:02;99932.84;;;14.75;63.78
48926;BME280;39838;59.938;30.642;2022-09-20T12:05:33;99934.34;;;14.86;63.69
48926;BME280;39838;59.938;30.642;2022-09-20T12:08:05;99944.78;;;14.86;63.96
48926;BME280;39838;59.938;30.642;2022-09-20T12:10:36;99948.00;;;14.95;64.33
48926;BME280;39838;59.938;30.642;2022-09-20T12:13:06;99948.72;;;15.02;63.79
48926;BME280;39838;59.938;30.642;2022-09-20T12:15:43;99961.63;;;15.08;64.32
48926;BME280;39838;59.938;30.642;2022-09-20T12:18:44;99963.56;;;15.01;64.68
48926;BME280;39838;59.938;30.642;2022-09-20T12:21:13;99974.47;;;14.85;64.95
48926;BME280;39838;59.938;30.642;2022-09-20T12:26:44;99963.72;;;14.61;65.45
48926;BME280;39838;59.938;30.642;2022-09-20T12:32:58;99986.94;;;14.73;65.46
48926;BME280;39838;59.938;30.642;2022-09-20T12:39:02;99996.16;;;14.88;65.22
48926;BME280;39838;59.938;30.642;2022-09-20T12:41:46;100000.38;;;14.94;64.73
48926;BME280;39838;59.938;30.642;2022-09-20T12:44:26;100001.28;;;14.93;64.51
48926;BME280;39838;59.938;30.642;2022-09-20T12:46:57;100003.66;;;15.02;63.95
48926;BME280;39838;59.938;30.642;2022-09-20T12:49:50;100016.38;;;15.16;63.04
48926;BME280;39838;59.938;30.642;2022-09-20T12:52:54;100009.84;;;15.30;61.51
48926;BME280;39838;59.938;30.642;2022-09-20T12:55:39;100030.41;;;15.46;60.54
48926;BME280;39838;59.938;30.642;2022-09-20T12:58:32;100023.44;;;15.45;60.92
48926;BME280;39838;59.938;30.642;2022-09-20T13:01:26;100025.31;;;15.40;60.34
48926;BME280;39838;59.938;30.642;2022-09-20T13:10:36;100038.63;;;15.30;60.48
48926;BME280;39838;59.938;30.642;2022-09-20T13:13:15;100035.06;;;15.35;60.66
48926;BME280;39838;59.938;30.642;2022-09-20T13:15:49;100027.53;;;15.22;60.85
48926;BME280;39838;59.938;30.642;2022-09-20T13:18:18;100047.38;;;15.31;60.96
48926;BME280;39838;59.938;30.642;2022-09-20T13:20:47;100050.88;;;15.30;61.11
48926;BME280;39838;59.938;30.642;2022-09-20T13:23:19;100047.44;;;15.28;60.52
48926;BME280;39838;59.938;30.642;2022-09-20T13:25:49;100060.63;;;15.25;60.35
48926;BME280;39838;59.938;30.642;2022-09-20T13:28:27;100060.81;;;15.17;60.60
48926;BME280;39838;59.938;30.642;2022-09-20T13:31:26;100056.81;;;15.04;60.94
48926;BME280;39838;59.938;30.642;2022-09-20T13:33:54;100066.28;;;15.08;60.62
48926;BME280;39838;59.938;30.642;2022-09-20T13:36:25;100065.53;;;15.03;60.57
48926;BME280;39838;59.938;30.642;2022-09-20T13:38:55;100068.28;;;14.98;61.53
48926;BME280;39838;59.938;30.642;2022-09-20T13:41:27;100064.09;;;14.90;61.88
48926;BME280;39838;59.938;30.642;2022-09-20T13:43:57;100072.81;;;14.92;62.21
48926;BME280;39838;59.938;30.642;2022-09-20T13:46:29;100056.59;;;14.78;62.59
48926;BME280;39838;59.938;30.642;2022-09-20T13:49:13;100079.78;;;14.91;62.12
48926;BME280;39838;59.938;30.642;2022-09-20T13:51:42;100085.78;;;14.95;62.19
48926;BME280;39838;59.938;30.642;2022-09-20T13:54:29;100088.41;;;14.95;62.15
48926;BME280;39838;59.938;30.642;2022-09-20T13:57:00;100101.44;;;14.98;62.77
48926;BME280;39838;59.938;30.642;2022-09-20T13:59:32;100099.78;;;14.94;63.06
48926;BME280;39838;59.938;30.642;2022-09-20T14:02:01;100083.56;;;14.80;63.28
48926;BME280;39838;59.938;30.642;2022-09-20T14:04:30;100110.31;;;14.91;63.25
48926;BME280;39838;59.938;30.642;2022-09-20T14:06:58;100113.97;;;14.84;63.26
48926;BME280;39838;59.938;30.642;2022-09-20T14:09:27;100120.97;;;14.82;62.76
48926;BME280;39838;59.938;30.642;2022-09-20T14:11:58;100124.59;;;14.76;63.01
48926;BME280;39838;59.938;30.642;2022-09-20T14:14:26;100123.84;;;14.71;63.58
48926;BME280;39838;59.938;30.642;2022-09-20T14:16:55;100135.31;;;14.65;63.86
48926;BME280;39838;59.938;30.642;2022-09-20T14:19:27;100132.00;;;14.57;64.53